Marshall, MN (56258)

4:56 PM CDT on August 17, 2017 (GMT -0500)
Samuel Luth. School | | Change Station

Elev 1145 ft 44.46 °N, 95.77 °W | Updated 2 seconds ago

Partly Cloudy
Partly Cloudy
77.8 °F
Feels Like 79 °F
N
4.0
Wind Variable Wind from West
Gusts 17.0 mph

Today
High -- | Low -- °F
--% Chance of Precip.
Yesterday
High -- | Low -- °F
Precip. -- in
Pressure 29.84 in
Visibility 10.0 miles
Clouds Few 3100 ft
Heat Index 79 °F
Dew Point 62 °F
Humidity 58%
Rainfall 0.36 in
Snow Depth Not available.
6:28 AM 8:24 PM
Waning Crescent, 19% visible
METAR KMML 172056Z AUTO 34014KT 10SM FEW031 24/17 A2985 RMK AO2 SLP104 P0002 60005 T02390172 50002
Pressure 29.84 in
Visibility 10.0 miles
Clouds Few 3100 ft
Heat Index 79 °F
Dew Point 62 °F
Humidity 58%
Rainfall 0.36 in
Snow Depth Not available.
6:28 AM 8:24 PM
Waning Crescent, 19% visible
METAR KMML 172056Z AUTO 34014KT 10SM FEW031 24/17 A2985 RMK AO2 SLP104 P0002 60005 T02390172 50002

Get Severe Weather Alerts

Thanks for signing up!

Be on the lookout for a verification email in your inbox.

You'll start receiving the daily forecast at 6 AM.

×

10-Day Weather Forecast

Almanac

Astronomy

Aug. 17, 2017 Rise Set
Actual Time
Civil Twilight
Nautical Twilight
Astronomical Twilight
Moon
Length of Visible Light
Length of Day
Tomorrow will be .
, % of the Moon is Illuminated

Today's Extremes

State Highs State Lows

Community

WunderPhotos

Category 6

Welcome to Category 6. This is the collective home for Weather Underground's featured writeups by Dr. Jeff Masters (right), Bob Henson (left), Chris Burt, and other regular contributors.

Nearby

Air Quality

  Air Quality AQ Index Pollutant
Not available.

Snow Depth

Station Depth Elevation

Earthquake Activity

City Distance Mag. Time & Date
Minimum magnitude displayed is 2.5.

Coastal Water Temperatures

Place Temperature

Stations

Nearby Weather Stations

Station Location Temp. Windchill Dew Point Humidity Wind Precip. Elev Updated Type
                   

Watches & Warnings

There are currently no watches in effect.